createdAt,value
2023-01-19T00:02:16.570Z,49.93
2023-01-19T00:07:20.040Z,49.01
2023-01-19T00:12:23.404Z,48.09
2023-01-19T00:17:28.132Z,49.34
2023-01-19T00:22:34.098Z,48.11
2023-01-19T00:27:39.568Z,49.34
2023-01-19T00:32:44.575Z,46.66
2023-01-19T00:37:47.965Z,49.25
2023-01-19T00:42:51.315Z,51.02
2023-01-19T00:47:58.451Z,50.45
2023-01-19T00:53:03.336Z,50.13
2023-01-19T00:58:07.665Z,50.79
2023-01-19T01:03:12.492Z,49.03
2023-01-19T01:08:15.980Z,48.64
2023-01-19T01:13:20.820Z,49.81
2023-01-19T01:18:29.435Z,49.47
2023-01-19T01:23:32.869Z,51.99
2023-01-19T01:28:36.291Z,48.99
2023-01-19T01:33:43.304Z,45.92
2023-01-19T01:38:46.721Z,45.72
2023-01-19T01:43:53.497Z,44.84
2023-01-19T01:49:04.718Z,45.59
2023-01-19T01:54:18.875Z,45.41
2023-01-19T01:59:29.786Z,45.09
2023-01-19T02:04:38.286Z,45.57
2023-01-19T02:09:59.318Z,44.66
2023-01-19T02:15:05.308Z,45.02
2023-01-19T02:20:11.557Z,45.99
2023-01-19T02:25:20.291Z,46.37
2023-01-19T02:30:24.161Z,45.64
2023-01-19T02:35:28.145Z,46.45
2023-01-19T02:40:33.903Z,45.24
2023-01-19T02:45:38.719Z,45.65
2023-01-19T02:50:46.273Z,45.37
2023-01-19T02:55:57.251Z,45.35
2023-01-19T03:01:13.644Z,45.15
2023-01-19T03:06:25.004Z,46.56
2023-01-19T03:11:37.191Z,46.08
2023-01-19T03:16:45.484Z,45.20
2023-01-19T03:21:52.197Z,44.98
2023-01-19T03:27:01.908Z,46.47
2023-01-19T03:32:09.235Z,47.05
2023-01-19T03:37:15.478Z,45.34
2023-01-19T03:42:21.208Z,45.25
2023-01-19T03:47:26.345Z,44.95
2023-01-19T03:52:29.903Z,44.43
2023-01-19T03:57:37.647Z,44.70
2023-01-19T04:02:43.159Z,45.32
2023-01-19T04:07:48.888Z,44.10
2023-01-19T04:12:59.988Z,43.18
2023-01-19T04:18:07.012Z,43.17
2023-01-19T04:23:10.499Z,43.71
2023-01-19T04:28:15.715Z,47.61
2023-01-19T04:33:20.054Z,48.93
2023-01-19T04:38:24.060Z,49.28
2023-01-19T04:43:31.059Z,48.08
2023-01-19T04:48:34.497Z,53.94
2023-01-19T04:53:42.599Z,49.24
2023-01-19T04:58:49.587Z,49.24
2023-01-19T05:03:53.089Z,48.61
2023-01-19T05:08:56.559Z,47.89
2023-01-19T05:14:01.617Z,46.76
2023-01-19T05:19:05.018Z,47.97
2023-01-19T05:24:08.922Z,46.50
2023-01-19T05:29:13.954Z,46.45
2023-01-19T05:34:17.444Z,46.78
2023-01-19T05:39:20.891Z,46.12
2023-01-19T05:44:25.809Z,44.65
2023-01-19T05:49:29.306Z,44.85
2023-01-19T05:54:32.775Z,46.59
2023-01-19T05:59:39.859Z,43.83
2023-01-19T06:04:43.337Z,43.66
2023-01-19T06:09:46.752Z,43.82
2023-01-19T06:14:53.864Z,45.85
2023-01-19T06:19:57.277Z,46.84
2023-01-19T06:25:03.288Z,44.93
2023-01-19T06:30:08.994Z,44.40
2023-01-19T06:35:12.426Z,44.56
2023-01-19T06:40:18.725Z,43.48
2023-01-19T06:45:23.519Z,42.85
2023-01-19T06:50:27.102Z,44.53
2023-01-19T06:55:30.507Z,42.76
2023-01-19T07:00:35.386Z,41.69
2023-01-19T07:05:38.839Z,41.54
2023-01-19T07:11:24.856Z,39.32
2023-01-19T07:16:11.309Z,41.23
2023-01-19T07:21:14.790Z,39.41
2023-01-19T07:26:21.404Z,40.50
2023-01-19T07:31:26.419Z,39.58
2023-01-19T07:36:29.972Z,39.51
2023-01-19T07:41:36.077Z,39.78
2023-01-19T07:46:47.181Z,41.58
2023-01-19T07:51:50.628Z,38.39
2023-01-19T07:56:54.959Z,36.37
2023-01-19T08:02:02.216Z,37.43
2023-01-19T08:07:05.741Z,36.77
2023-01-19T08:12:09.211Z,36.71
2023-01-19T08:17:14.964Z,37.56
2023-01-19T08:22:18.380Z,36.18
2023-01-19T08:27:22.212Z,36.28
2023-01-19T08:32:29.451Z,36.64
2023-01-19T08:37:34.269Z,35.87
2023-01-19T08:42:37.967Z,38.01
2023-01-19T08:47:43.111Z,40.23
2023-01-19T08:52:49.235Z,37.82
2023-01-19T08:57:53.854Z,36.83
2023-01-19T09:03:04.326Z,35.85
2023-01-19T09:08:09.437Z,34.25
2023-01-19T09:13:13.800Z,34.11
2023-01-19T09:18:20.078Z,41.18
2023-01-19T09:23:26.152Z,35.17
2023-01-19T09:28:31.933Z,36.70
2023-01-19T09:33:37.159Z,39.64
2023-01-19T09:38:40.733Z,37.53
2023-01-19T09:43:48.468Z,41.35
2023-01-19T09:48:54.439Z,42.03
2023-01-19T09:54:04.069Z,44.70
2023-01-19T09:59:18.917Z,43.73
2023-01-19T10:04:32.671Z,48.08
2023-01-19T10:09:47.770Z,44.35
2023-01-19T10:14:54.739Z,44.02
2023-01-19T10:20:04.149Z,43.21
2023-01-19T10:25:17.926Z,41.05
2023-01-19T10:30:24.327Z,40.82
2023-01-19T10:35:31.320Z,41.67
2023-01-19T10:40:38.602Z,40.27
2023-01-19T10:45:42.464Z,37.80
2023-01-19T10:50:47.589Z,39.99
2023-01-19T10:56:09.538Z,40.43
2023-01-19T11:01:18.439Z,38.58
2023-01-19T11:06:31.102Z,35.18
2023-01-19T11:11:43.077Z,36.27
2023-01-19T11:16:50.577Z,35.44
2023-01-19T11:22:09.579Z,36.42
2023-01-19T11:27:17.418Z,37.23
2023-01-19T11:32:25.147Z,38.44
2023-01-19T11:37:34.596Z,37.07
2023-01-19T11:42:40.409Z,38.11
2023-01-19T11:47:44.948Z,38.12
2023-01-19T11:52:54.462Z,41.11
2023-01-19T11:57:57.860Z,39.49
2023-01-19T12:03:05.720Z,37.44
2023-01-19T12:08:15.862Z,37.21
2023-01-19T12:13:21.892Z,36.33
2023-01-19T12:18:28.040Z,36.90
2023-01-19T12:23:52.164Z,36.66
2023-01-19T12:28:59.116Z,36.05
2023-01-19T12:34:21.297Z,36.28
2023-01-19T12:39:28.439Z,36.60
2023-01-19T12:44:35.283Z,36.60
2023-01-19T12:49:44.060Z,37.03
2023-01-19T12:54:58.858Z,42.97
2023-01-19T13:00:05.895Z,39.06
2023-01-19T13:05:27.923Z,37.24
2023-01-19T13:10:52.306Z,34.88
2023-01-19T13:15:59.807Z,35.73
2023-01-19T13:21:06.295Z,34.81
2023-01-19T13:26:16.504Z,36.94
2023-01-19T13:31:21.569Z,37.02
2023-01-19T13:36:28.984Z,37.45
2023-01-19T13:41:38.174Z,41.61
2023-01-19T13:46:43.957Z,43.57
2023-01-19T13:51:49.566Z,43.08
2023-01-19T13:56:54.810Z,42.12
2023-01-19T14:02:14.723Z,44.71
2023-01-19T14:07:26.292Z,40.43
2023-01-19T14:12:32.569Z,38.84
2023-01-19T14:17:39.945Z,38.24
2023-01-19T14:22:45.320Z,37.37
2023-01-19T14:27:51.219Z,38.70
2023-01-19T14:32:58.279Z,41.64
2023-01-19T14:38:01.880Z,50.35
2023-01-19T14:43:06.275Z,41.14
2023-01-19T14:48:18.450Z,40.44
2023-01-19T14:53:24.484Z,51.72
2023-01-19T14:58:28.718Z,43.28
2023-01-19T15:03:44.120Z,43.39
2023-01-19T15:08:50.073Z,40.15
2023-01-19T15:13:55.215Z,41.26
2023-01-19T15:19:02.283Z,37.68
2023-01-19T15:24:08.137Z,46.80
2023-01-19T15:29:18.207Z,45.32
2023-01-19T15:34:23.024Z,37.84
2023-01-19T15:39:27.240Z,35.89
2023-01-19T15:44:30.946Z,35.01
2023-01-19T15:49:36.103Z,34.53
2023-01-19T15:54:41.913Z,35.00
2023-01-19T15:59:45.457Z,34.66
2023-01-19T16:04:50.874Z,35.80
2023-01-19T16:09:54.315Z,35.64
2023-01-19T16:14:57.801Z,32.28
2023-01-19T16:20:02.548Z,33.87
2023-01-19T16:25:06.519Z,35.48
2023-01-19T16:30:13.277Z,29.14
2023-01-19T16:35:20.451Z,28.69
2023-01-19T16:40:23.923Z,32.06
2023-01-19T16:45:27.417Z,29.91
2023-01-19T16:50:32.228Z,29.93
2023-01-19T16:55:35.638Z,30.01
2023-01-19T17:00:39.034Z,30.29
2023-01-19T17:05:48.992Z,33.12
2023-01-19T17:10:52.463Z,37.71
2023-01-19T17:16:01.815Z,38.80
2023-01-19T17:21:10.352Z,42.40
2023-01-19T17:26:13.898Z,44.74
2023-01-19T17:31:20.962Z,46.31
2023-01-19T17:36:29.095Z,45.16
2023-01-19T17:41:35.001Z,40.88
2023-01-19T17:46:39.675Z,48.90
2023-01-19T17:51:51.844Z,45.32
2023-01-19T17:56:57.746Z,37.01
2023-01-19T18:02:01.403Z,38.10
2023-01-19T18:07:06.918Z,35.98
2023-01-19T18:12:12.878Z,37.21
2023-01-19T18:17:16.444Z,37.48
2023-01-19T18:22:21.442Z,38.32
2023-01-19T18:27:25.168Z,39.84
2023-01-19T18:32:28.609Z,44.54
2023-01-19T18:37:33.644Z,43.26
2023-01-19T18:42:37.417Z,41.97
2023-01-19T18:47:40.926Z,41.68
2023-01-19T18:52:48.791Z,39.99
2023-01-19T18:57:57.182Z,41.09
2023-01-19T19:03:00.684Z,43.88
2023-01-19T19:08:06.006Z,44.83
2023-01-19T19:13:09.815Z,45.22
2023-01-19T19:18:15.662Z,45.95
2023-01-19T19:23:20.502Z,54.68
2023-01-19T19:28:23.935Z,46.27
2023-01-19T19:33:27.529Z,46.33
2023-01-19T19:38:32.458Z,46.00
2023-01-19T19:43:38.841Z,45.38
2023-01-19T19:48:42.402Z,45.03
2023-01-19T19:53:51.484Z,42.19
2023-01-19T19:58:56.218Z,40.71
2023-01-19T20:04:03.211Z,41.79
2023-01-19T20:09:10.203Z,41.34
2023-01-19T20:14:14.678Z,41.19
2023-01-19T20:19:18.385Z,41.67
2023-01-19T20:24:23.183Z,42.69
2023-01-19T20:29:26.683Z,43.65
2023-01-19T20:34:33.564Z,43.78
2023-01-19T20:39:38.660Z,45.81
2023-01-19T20:44:47.031Z,49.30
2023-01-19T20:49:50.454Z,50.25
2023-01-19T20:54:55.382Z,49.37
2023-01-19T21:00:01.090Z,52.62
2023-01-19T21:05:04.733Z,50.23
2023-01-19T21:10:10.616Z,49.93
2023-01-19T21:15:16.469Z,51.02
2023-01-19T21:20:20.095Z,55.14
2023-01-19T21:25:27.214Z,45.44
2023-01-19T21:30:31.102Z,45.67
2023-01-19T21:35:34.667Z,44.59
2023-01-19T21:40:39.476Z,47.93
2023-01-19T21:45:45.181Z,47.12
2023-01-19T21:50:57.669Z,46.32
2023-01-19T21:56:02.962Z,47.35
2023-01-19T22:01:09.833Z,51.16
2023-01-19T22:06:15.593Z,47.42
2023-01-19T22:11:23.563Z,48.21
2023-01-19T22:16:30.314Z,46.50
2023-01-19T22:21:36.702Z,46.65
2023-01-19T22:26:43.779Z,47.54
2023-01-19T22:31:47.569Z,55.71
2023-01-19T22:36:53.325Z,48.84
2023-01-19T22:42:00.284Z,47.57
2023-01-19T22:47:03.759Z,48.18
2023-01-19T22:52:09.260Z,48.26
2023-01-19T22:57:16.371Z,48.07
2023-01-19T23:02:20.938Z,48.97
2023-01-19T23:07:24.576Z,51.00
2023-01-19T23:12:31.658Z,49.95
2023-01-19T23:17:35.083Z,50.41
2023-01-19T23:22:38.644Z,50.84
2023-01-19T23:27:45.938Z,52.67
2023-01-19T23:32:51.813Z,51.71
2023-01-19T23:37:55.401Z,55.53
2023-01-19T23:43:00.205Z,53.76
2023-01-19T23:48:06.868Z,54.19
2023-01-19T23:53:13.575Z,53.16
2023-01-19T23:58:20.590Z,53.02
